createdAt,value
2023-02-19T00:01:46.390Z,8.96
2023-02-19T00:04:16.237Z,8.91
2023-02-19T00:06:45.082Z,8.84
2023-02-19T00:09:13.927Z,8.80
2023-02-19T00:11:42.322Z,8.75
2023-02-19T00:14:11.517Z,8.66
2023-02-19T00:16:39.831Z,8.63
2023-02-19T00:19:09.293Z,8.61
2023-02-19T00:21:37.141Z,8.60
2023-02-19T00:24:05.930Z,8.58
2023-02-19T00:26:34.851Z,8.57
2023-02-19T00:29:02.893Z,8.56
2023-02-19T00:31:35.092Z,8.56
2023-02-19T00:34:04.471Z,8.53
2023-02-19T00:36:35.045Z,8.51
2023-02-19T00:39:03.566Z,8.47
2023-02-19T00:41:32.063Z,8.43
2023-02-19T00:44:01.833Z,8.41
2023-02-19T00:46:34.078Z,8.40
2023-02-19T00:49:02.256Z,8.42
2023-02-19T00:51:32.242Z,8.45
2023-02-19T00:54:00.388Z,8.45
2023-02-19T00:56:28.509Z,8.43
2023-02-19T00:58:56.550Z,8.40
2023-02-19T01:01:24.493Z,8.38
2023-02-19T01:03:53.131Z,8.33
2023-02-19T01:06:21.060Z,8.28
2023-02-19T01:08:49.146Z,8.25
2023-02-19T01:11:17.763Z,8.23
2023-02-19T01:13:45.900Z,8.22
2023-02-19T01:16:21.128Z,8.22
2023-02-19T01:18:49.020Z,8.25
2023-02-19T01:21:20.767Z,8.28
2023-02-19T01:23:49.447Z,8.30
2023-02-19T01:26:19.078Z,8.31
2023-02-19T01:28:48.439Z,8.30
2023-02-19T01:31:17.554Z,8.29
2023-02-19T01:33:46.965Z,8.30
2023-02-19T01:36:15.662Z,8.30
2023-02-19T01:38:43.442Z,8.28
2023-02-19T01:41:13.354Z,8.22
2023-02-19T01:43:57.960Z,8.15
2023-02-19T01:46:33.116Z,8.10
2023-02-19T01:49:04.618Z,8.05
2023-02-19T01:51:32.870Z,7.99
2023-02-19T01:54:02.783Z,7.90
2023-02-19T01:56:31.974Z,7.85
2023-02-19T01:59:00.535Z,7.83
2023-02-19T02:01:28.288Z,7.82
2023-02-19T02:03:56.760Z,7.84
2023-02-19T02:06:29.866Z,7.84
2023-02-19T02:09:16.962Z,7.86
2023-02-19T02:11:52.636Z,7.87
2023-02-19T02:14:23.778Z,7.90
2023-02-19T02:16:51.577Z,7.87
2023-02-19T02:19:39.670Z,7.82
2023-02-19T02:22:13.657Z,7.80
2023-02-19T02:24:50.934Z,7.81
2023-02-19T02:27:22.694Z,7.82
2023-02-19T02:29:59.435Z,7.83
2023-02-19T02:32:32.675Z,7.84
2023-02-19T02:35:11.559Z,7.83
2023-02-19T02:37:41.855Z,7.84
2023-02-19T02:40:10.932Z,7.85
2023-02-19T02:42:39.934Z,7.87
2023-02-19T02:45:38.028Z,7.88
2023-02-19T02:48:54.104Z,7.90
2023-02-19T02:51:25.432Z,7.91
2023-02-19T02:54:43.285Z,7.93
2023-02-19T02:57:14.982Z,7.93
2023-02-19T02:59:49.721Z,7.92
2023-02-19T03:02:25.236Z,7.93
2023-02-19T03:05:30.585Z,7.95
2023-02-19T03:08:04.274Z,7.98
2023-02-19T03:10:43.627Z,8.01
2023-02-19T03:13:34.500Z,7.99
2023-02-19T03:16:24.305Z,7.97
2023-02-19T03:19:12.503Z,7.98
2023-02-19T03:21:42.395Z,7.97
2023-02-19T03:24:30.471Z,8.01
2023-02-19T03:26:59.769Z,8.03
2023-02-19T03:29:32.105Z,8.04
2023-02-19T03:32:11.903Z,8.06
2023-02-19T03:34:53.195Z,8.05
2023-02-19T03:37:25.300Z,8.06
2023-02-19T03:39:54.086Z,8.02
2023-02-19T03:42:37.904Z,7.99
2023-02-19T03:45:15.270Z,7.98
2023-02-19T03:47:49.981Z,8.00
2023-02-19T03:50:21.644Z,7.99
2023-02-19T03:52:55.823Z,7.99
2023-02-19T03:55:42.875Z,7.95
2023-02-19T03:58:21.253Z,7.96
2023-02-19T04:00:53.341Z,7.96
2023-02-19T04:03:27.266Z,7.98
2023-02-19T04:06:03.150Z,7.98
2023-02-19T04:08:34.049Z,8.00
2023-02-19T04:11:04.650Z,8.05
2023-02-19T04:13:42.353Z,8.06
2023-02-19T04:16:13.756Z,8.07
2023-02-19T04:18:44.311Z,8.08
2023-02-19T04:21:12.966Z,8.10
2023-02-19T04:23:42.916Z,8.14
2023-02-19T04:26:12.142Z,8.14
2023-02-19T04:28:40.402Z,8.14
2023-02-19T04:31:08.453Z,8.11
2023-02-19T04:33:36.666Z,8.09
2023-02-19T04:36:04.747Z,8.07
2023-02-19T04:38:32.658Z,8.04
2023-02-19T04:41:00.722Z,7.99
2023-02-19T04:43:28.582Z,7.94
2023-02-19T04:45:59.981Z,7.90
2023-02-19T04:48:28.293Z,7.88
2023-02-19T04:50:56.255Z,7.83
2023-02-19T04:53:24.368Z,7.77
2023-02-19T04:55:53.461Z,7.73
2023-02-19T04:58:21.727Z,7.70
2023-02-19T05:00:53.153Z,7.70
2023-02-19T05:03:20.995Z,7.67
2023-02-19T05:05:48.780Z,7.66
2023-02-19T05:08:16.900Z,7.68
2023-02-19T05:10:44.922Z,7.72
2023-02-19T05:13:12.761Z,7.72
2023-02-19T05:15:41.058Z,7.72
2023-02-19T05:18:08.933Z,7.72
2023-02-19T05:20:36.964Z,7.69
2023-02-19T05:23:04.715Z,7.65
2023-02-19T05:25:32.666Z,7.64
2023-02-19T05:28:17.101Z,7.64
2023-02-19T05:30:46.231Z,7.64
2023-02-19T05:33:14.735Z,7.63
2023-02-19T05:35:43.823Z,7.68
2023-02-19T05:38:12.257Z,7.72
2023-02-19T05:40:40.361Z,7.74
2023-02-19T05:43:08.920Z,7.77
2023-02-19T05:45:37.197Z,7.83
2023-02-19T05:48:05.776Z,7.84
2023-02-19T05:50:35.210Z,7.85
2023-02-19T05:53:12.817Z,7.89
2023-02-19T05:55:40.836Z,7.92
2023-02-19T05:58:08.656Z,7.95
2023-02-19T06:00:36.531Z,7.97
2023-02-19T06:03:04.695Z,7.98
2023-02-19T06:05:32.885Z,8.00
2023-02-19T06:08:00.629Z,8.01
2023-02-19T06:10:28.743Z,8.00
2023-02-19T06:12:56.504Z,8.00
2023-02-19T06:15:24.257Z,8.00
2023-02-19T06:17:52.349Z,7.99
2023-02-19T06:20:20.129Z,8.00
2023-02-19T06:22:50.031Z,8.01
2023-02-19T06:25:18.797Z,7.99
2023-02-19T06:27:46.696Z,7.98
2023-02-19T06:30:14.596Z,7.97
2023-02-19T06:32:42.359Z,7.95
2023-02-19T06:35:10.122Z,7.98
2023-02-19T06:37:38.206Z,7.94
2023-02-19T06:40:06.444Z,7.94
2023-02-19T06:42:34.806Z,7.97
2023-02-19T06:45:02.878Z,7.99
2023-02-19T06:47:32.001Z,7.97
2023-02-19T06:50:00.592Z,8.00
2023-02-19T06:52:28.460Z,8.03
2023-02-19T06:54:56.318Z,8.01
2023-02-19T06:57:24.085Z,7.92
2023-02-19T06:59:51.790Z,7.83
2023-02-19T07:02:19.860Z,7.75
2023-02-19T07:04:47.809Z,7.70
2023-02-19T07:07:15.534Z,7.64
2023-02-19T07:09:43.465Z,7.64
2023-02-19T07:12:11.946Z,7.65
2023-02-19T07:14:40.388Z,7.66
2023-02-19T07:17:08.179Z,7.63
2023-02-19T07:19:36.151Z,7.57
2023-02-19T07:22:04.195Z,7.54
2023-02-19T07:24:32.189Z,7.46
2023-02-19T07:26:59.981Z,7.38
2023-02-19T07:29:28.564Z,7.38
2023-02-19T07:31:57.206Z,7.37
2023-02-19T07:34:25.119Z,7.37
2023-02-19T07:36:53.280Z,7.42
2023-02-19T07:39:21.261Z,7.41
2023-02-19T07:41:49.423Z,7.43
2023-02-19T07:44:26.844Z,7.44
2023-02-19T07:46:54.891Z,7.47
2023-02-19T07:51:26.698Z,7.14
2023-02-19T07:53:54.602Z,7.46
2023-02-19T07:56:22.673Z,7.41
2023-02-19T07:58:50.794Z,7.41
2023-02-19T08:01:40.999Z,7.44
2023-02-19T08:04:09.308Z,7.46
2023-02-19T08:06:37.494Z,7.49
2023-02-19T08:09:06.143Z,7.53
2023-02-19T08:11:52.786Z,7.55
2023-02-19T08:14:25.349Z,7.61
2023-02-19T08:16:54.359Z,7.64
2023-02-19T08:19:22.319Z,7.65
2023-02-19T08:21:53.992Z,7.67
2023-02-19T08:24:22.292Z,7.73
2023-02-19T08:26:51.020Z,7.76
2023-02-19T08:29:19.481Z,7.82
2023-02-19T08:31:48.606Z,7.86
2023-02-19T08:34:17.217Z,7.90
2023-02-19T08:36:45.409Z,7.95
2023-02-19T08:39:13.842Z,8.01
2023-02-19T08:41:42.434Z,8.08
2023-02-19T08:44:10.430Z,8.14
2023-02-19T08:46:38.633Z,8.19
2023-02-19T08:49:06.625Z,8.28
2023-02-19T08:51:34.500Z,8.42
2023-02-19T08:54:04.413Z,8.57
2023-02-19T08:56:32.567Z,8.66
2023-02-19T08:59:00.547Z,8.67
2023-02-19T09:01:28.832Z,8.64
2023-02-19T09:03:57.266Z,8.63
2023-02-19T09:06:25.497Z,8.60
2023-02-19T09:08:53.458Z,8.60
2023-02-19T09:11:21.733Z,8.59
2023-02-19T09:13:49.602Z,8.60
2023-02-19T09:16:17.778Z,8.63
2023-02-19T09:18:45.972Z,8.65
2023-02-19T09:21:14.407Z,8.70
2023-02-19T09:23:42.962Z,8.72
2023-02-19T09:26:11.544Z,8.73
2023-02-19T09:28:41.885Z,8.73
2023-02-19T09:31:14.388Z,8.74
2023-02-19T09:33:47.398Z,8.76
2023-02-19T09:36:16.742Z,8.79
2023-02-19T09:38:45.150Z,8.79
2023-02-19T09:41:26.333Z,8.82
2023-02-19T09:43:54.976Z,8.89
2023-02-19T09:46:32.548Z,8.94
2023-02-19T09:49:08.195Z,9.03
2023-02-19T09:51:40.272Z,9.12
2023-02-19T09:54:18.004Z,9.21
2023-02-19T09:56:46.298Z,9.28
2023-02-19T09:59:31.623Z,9.33
2023-02-19T10:02:23.660Z,9.32
2023-02-19T10:04:53.329Z,9.37
2023-02-19T10:07:28.366Z,9.39
2023-02-19T10:10:03.605Z,9.43
2023-02-19T10:12:32.662Z,9.48
2023-02-19T10:15:17.867Z,9.53
2023-02-19T10:17:46.232Z,9.57
2023-02-19T10:20:24.641Z,9.60
2023-02-19T10:23:04.949Z,9.59
2023-02-19T10:25:34.528Z,9.58
2023-02-19T10:28:03.532Z,9.64
2023-02-19T10:30:35.513Z,9.70
2023-02-19T10:33:09.715Z,9.73
2023-02-19T10:35:51.630Z,9.79
2023-02-19T10:38:24.011Z,9.86
2023-02-19T10:41:06.372Z,9.93
2023-02-19T10:43:41.161Z,9.98
2023-02-19T10:46:28.500Z,10.03
2023-02-19T10:49:04.201Z,10.14
2023-02-19T10:51:34.400Z,10.17
2023-02-19T10:54:07.667Z,10.23
2023-02-19T10:56:38.580Z,10.27
2023-02-19T10:59:24.801Z,10.30
2023-02-19T11:02:00.361Z,10.32
2023-02-19T11:04:35.385Z,10.34
2023-02-19T11:07:14.237Z,10.35
2023-02-19T11:09:45.523Z,10.37
2023-02-19T11:12:15.169Z,10.35
2023-02-19T11:14:45.181Z,10.31
2023-02-19T11:17:25.083Z,10.35
2023-02-19T11:20:00.841Z,10.36
2023-02-19T11:22:34.037Z,10.38
2023-02-19T11:25:20.751Z,10.39
2023-02-19T11:28:07.024Z,10.40
2023-02-19T11:30:39.915Z,10.41
2023-02-19T11:33:17.041Z,10.43
2023-02-19T11:35:48.998Z,10.43
2023-02-19T11:38:19.907Z,10.45
2023-02-19T11:41:17.089Z,10.46
2023-02-19T11:44:04.519Z,10.52
2023-02-19T11:47:11.683Z,10.54
2023-02-19T11:50:11.408Z,10.59
2023-02-19T11:52:55.085Z,10.64
2023-02-19T11:55:41.756Z,10.66
2023-02-19T11:58:28.456Z,10.66
2023-02-19T12:01:35.099Z,10.70
2023-02-19T12:04:18.239Z,10.75
2023-02-19T12:07:29.742Z,10.80
2023-02-19T12:10:25.728Z,10.81
2023-02-19T12:13:00.540Z,10.82
2023-02-19T12:15:50.777Z,10.85
2023-02-19T12:18:40.881Z,10.83
2023-02-19T12:21:24.903Z,10.86
2023-02-19T12:24:12.038Z,10.90
2023-02-19T12:27:13.058Z,10.90
2023-02-19T12:29:41.081Z,10.97
2023-02-19T12:32:28.917Z,11.02
2023-02-19T12:34:56.749Z,11.08
2023-02-19T12:37:30.750Z,11.09
2023-02-19T12:40:33.004Z,11.13
2023-02-19T12:43:13.783Z,11.20
2023-02-19T12:45:57.953Z,11.16
2023-02-19T12:48:30.304Z,11.18
2023-02-19T12:51:30.420Z,11.31
2023-02-19T12:54:07.249Z,11.58
2023-02-19T12:56:42.967Z,11.73
2023-02-19T12:59:16.905Z,11.86
2023-02-19T13:01:59.447Z,12.03
2023-02-19T13:04:43.278Z,12.19
2023-02-19T13:07:17.520Z,12.33
2023-02-19T13:09:54.503Z,12.44
2023-02-19T13:12:30.318Z,12.62
2023-02-19T13:15:03.685Z,12.85
2023-02-19T13:17:38.305Z,12.83
2023-02-19T13:20:37.088Z,12.78
2023-02-19T13:23:47.560Z,12.80
2023-02-19T13:26:43.261Z,12.92
2023-02-19T13:29:37.181Z,12.94
2023-02-19T13:32:23.348Z,12.96
2023-02-19T13:35:06.712Z,13.07
2023-02-19T13:37:35.421Z,13.16
2023-02-19T13:40:18.729Z,13.09
2023-02-19T13:42:56.115Z,12.94
2023-02-19T13:45:46.076Z,12.84
2023-02-19T13:48:36.112Z,12.66
2023-02-19T13:51:13.524Z,12.49
2023-02-19T13:53:44.894Z,12.40
2023-02-19T13:56:36.972Z,12.39
2023-02-19T13:59:10.882Z,12.49
2023-02-19T14:01:53.865Z,12.68
2023-02-19T14:04:32.666Z,12.89
2023-02-19T14:07:03.696Z,12.95
2023-02-19T14:09:34.367Z,12.93
2023-02-19T14:12:09.604Z,12.86
2023-02-19T14:14:54.522Z,12.82
2023-02-19T14:17:27.181Z,12.76
2023-02-19T14:19:58.862Z,12.70
2023-02-19T14:22:45.219Z,12.70
2023-02-19T14:25:31.939Z,12.76
2023-02-19T14:28:05.707Z,12.80
2023-02-19T14:30:40.806Z,12.78
2023-02-19T14:33:11.430Z,12.75
2023-02-19T14:35:43.777Z,12.70
2023-02-19T14:38:21.261Z,12.68
2023-02-19T14:40:50.932Z,12.68
2023-02-19T14:43:21.305Z,12.69
2023-02-19T14:46:00.545Z,12.74
2023-02-19T14:48:49.305Z,12.70
2023-02-19T14:51:41.458Z,12.66
2023-02-19T14:54:21.774Z,12.56
2023-02-19T14:56:52.847Z,12.51
2023-02-19T14:59:20.679Z,12.56
2023-02-19T15:02:03.668Z,12.50
2023-02-19T15:04:36.813Z,12.45
2023-02-19T15:07:08.430Z,12.38
2023-02-19T15:09:47.447Z,12.31
2023-02-19T15:12:18.712Z,12.24
2023-02-19T15:14:48.638Z,12.21
2023-02-19T15:17:31.655Z,12.18
2023-02-19T15:20:05.714Z,12.10
2023-02-19T15:22:33.677Z,12.05
2023-02-19T15:25:06.268Z,12.02
2023-02-19T15:27:35.122Z,11.94
2023-02-19T15:30:03.456Z,11.87
2023-02-19T15:32:32.738Z,11.73
2023-02-19T15:35:03.253Z,11.60
2023-02-19T15:37:34.056Z,11.42
2023-02-19T15:40:07.761Z,11.21
2023-02-19T15:42:38.143Z,11.04
2023-02-19T15:45:31.832Z,10.94
2023-02-19T15:48:20.370Z,10.84
2023-02-19T15:50:52.949Z,10.81
2023-02-19T15:53:25.166Z,10.75
2023-02-19T15:55:59.168Z,10.72
2023-02-19T15:58:40.550Z,10.67
2023-02-19T16:01:14.715Z,10.60
2023-02-19T16:03:43.150Z,10.51
2023-02-19T16:06:15.283Z,10.48
2023-02-19T16:08:45.666Z,10.47
2023-02-19T16:11:22.905Z,10.47
2023-02-19T16:13:51.984Z,10.44
2023-02-19T16:16:30.526Z,10.48
2023-02-19T16:18:58.755Z,10.51
2023-02-19T16:21:28.391Z,10.58
2023-02-19T16:24:18.701Z,10.61
2023-02-19T16:26:47.130Z,10.67
2023-02-19T16:29:30.384Z,10.68
2023-02-19T16:32:01.839Z,10.70
2023-02-19T16:34:47.346Z,10.73
2023-02-19T16:37:33.333Z,10.75
2023-02-19T16:40:21.588Z,10.73
2023-02-19T16:42:49.717Z,10.84
2023-02-19T16:45:18.296Z,10.91
2023-02-19T16:47:51.410Z,10.92
2023-02-19T16:50:22.133Z,10.90
2023-02-19T16:52:50.740Z,10.91
2023-02-19T16:55:18.606Z,10.87
2023-02-19T16:57:46.598Z,10.86
2023-02-19T17:00:23.879Z,10.83
2023-02-19T17:02:54.643Z,10.81
2023-02-19T17:05:25.541Z,10.78
2023-02-19T17:07:54.223Z,10.71
2023-02-19T17:10:25.749Z,10.74
2023-02-19T17:12:56.106Z,10.78
2023-02-19T17:15:24.018Z,10.75
2023-02-19T17:17:51.943Z,10.73
2023-02-19T17:20:27.829Z,10.74
2023-02-19T17:22:56.711Z,10.72
2023-02-19T17:25:25.103Z,10.69
2023-02-19T17:27:53.130Z,10.69
2023-02-19T17:30:28.570Z,10.73
2023-02-19T17:32:56.883Z,10.75
2023-02-19T17:35:25.300Z,10.73
2023-02-19T17:37:53.609Z,10.75
2023-02-19T17:40:32.681Z,10.73
2023-02-19T17:43:01.685Z,10.73
2023-02-19T17:45:29.973Z,10.73
2023-02-19T17:47:58.618Z,10.74
2023-02-19T17:50:32.100Z,10.74
2023-02-19T17:53:00.184Z,10.71
2023-02-19T17:55:28.189Z,10.67
2023-02-19T17:57:56.925Z,10.65
2023-02-19T18:00:28.126Z,10.64
2023-02-19T18:02:56.456Z,10.62
2023-02-19T18:05:25.214Z,10.62
2023-02-19T18:07:53.270Z,10.61
2023-02-19T18:10:26.046Z,10.59
2023-02-19T18:12:54.414Z,10.58
2023-02-19T18:15:26.761Z,10.58
2023-02-19T18:17:56.427Z,10.60
2023-02-19T18:20:28.917Z,10.61
2023-02-19T18:22:57.913Z,10.60
2023-02-19T18:25:25.900Z,10.60
2023-02-19T18:27:54.670Z,10.58
2023-02-19T18:30:23.866Z,10.59
2023-02-19T18:32:52.104Z,10.59
2023-02-19T18:35:21.413Z,10.60
2023-02-19T18:37:53.351Z,10.61
2023-02-19T18:40:26.412Z,10.60
2023-02-19T18:42:54.710Z,10.59
2023-02-19T18:45:22.669Z,10.56
2023-02-19T18:47:51.487Z,10.50
2023-02-19T18:50:20.641Z,10.44
2023-02-19T18:52:48.735Z,10.43
2023-02-19T18:55:16.942Z,10.40
2023-02-19T18:57:45.942Z,10.38
2023-02-19T19:00:19.518Z,10.38
2023-02-19T19:02:50.520Z,10.36
2023-02-19T19:05:23.537Z,10.35
2023-02-19T19:07:56.786Z,10.29
2023-02-19T19:10:25.173Z,10.29
2023-02-19T19:12:54.444Z,10.27
2023-02-19T19:15:23.127Z,10.23
2023-02-19T19:17:51.635Z,10.20
2023-02-19T19:20:21.685Z,10.18
2023-02-19T19:22:51.566Z,10.19
2023-02-19T19:25:21.929Z,10.17
2023-02-19T19:27:53.220Z,10.17
2023-02-19T19:30:22.349Z,10.18
2023-02-19T19:32:52.483Z,10.18
2023-02-19T19:35:21.878Z,10.14
2023-02-19T19:37:49.989Z,10.12
2023-02-19T19:40:18.653Z,10.12
2023-02-19T19:42:47.058Z,10.13
2023-02-19T19:45:15.812Z,10.15
2023-02-19T19:47:43.801Z,10.14
2023-02-19T19:50:14.600Z,10.13
2023-02-19T19:52:42.334Z,10.13
2023-02-19T19:55:10.651Z,10.13
2023-02-19T19:57:40.872Z,10.13
2023-02-19T20:00:14.328Z,10.13
2023-02-19T20:02:42.831Z,10.11
2023-02-19T20:05:13.215Z,10.12
2023-02-19T20:07:41.303Z,10.12
2023-02-19T20:10:11.893Z,10.10
2023-02-19T20:12:40.753Z,10.10
2023-02-19T20:15:09.860Z,10.01
2023-02-19T20:17:38.191Z,9.94
2023-02-19T20:20:07.444Z,9.88
2023-02-19T20:22:36.740Z,9.81
2023-02-19T20:25:06.058Z,9.76
2023-02-19T20:27:34.278Z,9.70
2023-02-19T20:30:02.462Z,9.51
2023-02-19T20:32:30.863Z,9.29
2023-02-19T20:34:58.712Z,9.07
2023-02-19T20:37:26.931Z,8.84
2023-02-19T20:39:55.172Z,8.64
2023-02-19T20:42:23.203Z,8.50
2023-02-19T20:44:51.068Z,8.34
2023-02-19T20:47:19.176Z,8.18
2023-02-19T20:49:47.264Z,8.03
2023-02-19T20:52:17.145Z,7.83
2023-02-19T20:54:45.719Z,7.54
2023-02-19T20:57:14.555Z,7.30
2023-02-19T20:59:44.161Z,7.11
2023-02-19T21:02:18.874Z,6.98
2023-02-19T21:04:47.960Z,6.92
2023-02-19T21:07:16.761Z,6.88
2023-02-19T21:09:44.914Z,6.80
2023-02-19T21:12:13.801Z,6.59
2023-02-19T21:14:42.239Z,6.39
2023-02-19T21:17:10.192Z,6.13
2023-02-19T21:19:38.295Z,5.87
2023-02-19T21:22:06.387Z,5.76
2023-02-19T21:24:34.604Z,5.75
2023-02-19T21:27:02.474Z,5.73
2023-02-19T21:29:30.481Z,5.70
2023-02-19T21:31:59.166Z,5.71
2023-02-19T21:34:29.413Z,5.69
2023-02-19T21:36:57.572Z,5.63
2023-02-19T21:39:28.727Z,5.48
2023-02-19T21:41:58.738Z,5.31
2023-02-19T21:44:26.788Z,5.25
2023-02-19T21:46:54.966Z,5.16
2023-02-19T21:49:23.224Z,5.14
2023-02-19T21:51:51.034Z,5.16
2023-02-19T21:54:25.209Z,5.11
2023-02-19T21:56:53.913Z,5.11
2023-02-19T21:59:22.643Z,5.10
2023-02-19T22:01:50.835Z,5.13
2023-02-19T22:04:21.398Z,5.21
2023-02-19T22:06:49.281Z,5.29
2023-02-19T22:09:17.563Z,5.34
2023-02-19T22:11:45.775Z,5.42
2023-02-19T22:14:13.935Z,5.51
2023-02-19T22:16:42.180Z,5.61
2023-02-19T22:19:12.097Z,5.70
2023-02-19T22:21:45.138Z,5.74
2023-02-19T22:24:18.992Z,5.80
2023-02-19T22:26:48.109Z,5.84
2023-02-19T22:29:16.914Z,5.85
2023-02-19T22:31:45.158Z,5.83
2023-02-19T22:34:14.018Z,5.78
2023-02-19T22:36:42.719Z,5.74
2023-02-19T22:39:19.005Z,5.69
2023-02-19T22:41:47.771Z,5.55
2023-02-19T22:44:16.199Z,5.44
2023-02-19T22:46:50.410Z,5.44
2023-02-19T22:49:19.590Z,5.42
2023-02-19T22:52:02.325Z,5.43
2023-02-19T22:54:30.352Z,5.45
2023-02-19T22:56:58.343Z,5.41
2023-02-19T22:59:26.340Z,5.40
2023-02-19T23:01:54.823Z,5.45
2023-02-19T23:04:24.567Z,5.51
2023-02-19T23:06:53.010Z,5.56
2023-02-19T23:09:24.769Z,5.59
2023-02-19T23:11:53.653Z,5.57
2023-02-19T23:14:22.180Z,5.62
2023-02-19T23:16:50.081Z,5.62
2023-02-19T23:19:18.087Z,5.61
2023-02-19T23:21:46.711Z,5.61
2023-02-19T23:24:15.393Z,5.50
2023-02-19T23:26:49.205Z,5.49
2023-02-19T23:29:20.142Z,5.56
2023-02-19T23:31:48.276Z,5.51
2023-02-19T23:34:16.755Z,5.52
2023-02-19T23:36:48.245Z,5.53
2023-02-19T23:39:18.810Z,5.57
2023-02-19T23:41:53.438Z,5.54
2023-02-19T23:44:23.554Z,5.58
2023-02-19T23:46:52.133Z,5.59
2023-02-19T23:49:20.098Z,5.57
2023-02-19T23:51:48.394Z,5.58
2023-02-19T23:54:16.544Z,5.58
2023-02-19T23:56:44.507Z,5.55
2023-02-19T23:59:12.758Z,5.55
